createdAt,value
2018-03-02T00:00:44.701Z,67.8
2018-03-02T00:01:46.330Z,67.5
2018-03-02T00:02:47.857Z,67.6
2018-03-02T00:03:49.361Z,67.5
2018-03-02T00:04:50.881Z,67.4
2018-03-02T00:05:52.455Z,68.0
2018-03-02T00:06:54.001Z,68.1
2018-03-02T00:07:55.481Z,68.2
2018-03-02T00:08:56.989Z,68.2
2018-03-02T00:09:58.636Z,68.1
2018-03-02T00:11:00.103Z,68.3
2018-03-02T00:12:01.599Z,68.2
2018-03-02T00:13:03.193Z,68.1
2018-03-02T00:14:04.743Z,68.2
2018-03-02T00:15:06.288Z,68.2
2018-03-02T00:16:08.601Z,68.1
2018-03-02T00:17:10.114Z,68.7
2018-03-02T00:18:11.680Z,68.4
2018-03-02T00:19:13.179Z,68.7
2018-03-02T00:20:14.704Z,68.4
2018-03-02T00:21:16.301Z,68.5
2018-03-02T00:22:17.803Z,68.9
2018-03-02T00:23:19.264Z,69.0
2018-03-02T00:24:20.815Z,68.4
2018-03-02T00:25:22.384Z,68.6
2018-03-02T00:26:23.915Z,68.5
2018-03-02T00:27:25.418Z,69.0
2018-03-02T00:28:26.918Z,68.5
2018-03-02T00:29:28.417Z,68.7
2018-03-02T00:30:29.939Z,68.5
2018-03-02T00:31:31.398Z,68.6
2018-03-02T00:32:32.956Z,69.1
2018-03-02T00:33:34.475Z,68.9
2018-03-02T00:34:35.914Z,68.8
2018-03-02T00:35:37.417Z,69.0
2018-03-02T00:36:39.004Z,69.2
2018-03-02T00:37:40.465Z,68.8
2018-03-02T00:38:41.967Z,69.0
2018-03-02T00:39:43.567Z,68.9
2018-03-02T00:40:45.075Z,69.0
2018-03-02T00:41:46.662Z,68.9
2018-03-02T00:42:48.227Z,69.3
2018-03-02T00:43:49.731Z,69.0
2018-03-02T00:44:51.217Z,69.8
2018-03-02T00:45:52.763Z,69.7
2018-03-02T00:46:54.282Z,69.8
2018-03-02T00:47:55.841Z,69.8
2018-03-02T00:48:57.400Z,70.0
2018-03-02T00:49:58.921Z,69.8
2018-03-02T00:51:00.469Z,70.0
2018-03-02T00:52:02.014Z,69.7
2018-03-02T00:53:03.495Z,69.6
2018-03-02T00:54:05.021Z,69.4
2018-03-02T00:55:06.550Z,69.7
2018-03-02T00:56:08.044Z,70.1
2018-03-02T00:57:09.506Z,69.5
2018-03-02T00:58:10.990Z,69.6
2018-03-02T00:59:12.474Z,69.7
2018-03-02T01:00:13.978Z,69.9
2018-03-02T01:01:15.471Z,69.9
2018-03-02T01:02:16.944Z,70.1
2018-03-02T01:03:18.411Z,70.0
2018-03-02T01:04:20.035Z,69.9
2018-03-02T01:05:21.513Z,69.8
2018-03-02T01:06:23.043Z,70.2
2018-03-02T01:07:24.494Z,70.0
2018-03-02T01:08:26.012Z,70.3
2018-03-02T01:09:27.541Z,69.9
2018-03-02T01:10:29.002Z,71.1
2018-03-02T01:11:30.508Z,71.1
2018-03-02T01:12:31.971Z,71.0
2018-03-02T01:13:33.492Z,70.9
2018-03-02T01:14:34.967Z,70.9
2018-03-02T01:15:36.472Z,71.2
2018-03-02T01:16:37.971Z,71.0
2018-03-02T01:17:39.482Z,71.5
2018-03-02T01:18:41.014Z,71.5
2018-03-02T01:19:42.960Z,71.5
2018-03-02T01:20:44.469Z,71.5
2018-03-02T01:21:45.954Z,71.2
2018-03-02T01:22:47.479Z,71.5
2018-03-02T01:23:49.080Z,71.4
2018-03-02T01:24:50.531Z,71.1
2018-03-02T01:25:52.044Z,71.8
2018-03-02T01:26:53.555Z,71.9
2018-03-02T01:27:55.051Z,71.6
2018-03-02T01:28:56.570Z,72.1
2018-03-02T01:29:58.111Z,71.9
2018-03-02T01:30:59.570Z,71.9
2018-03-02T01:32:01.050Z,71.8
2018-03-02T01:33:02.585Z,71.9
2018-03-02T01:34:04.053Z,71.9
2018-03-02T01:35:05.554Z,71.8
2018-03-02T01:36:07.001Z,72.0
2018-03-02T01:37:08.491Z,72.0
2018-03-02T01:38:09.969Z,71.8
2018-03-02T01:39:11.480Z,71.9
2018-03-02T01:40:12.954Z,71.8
2018-03-02T01:41:14.462Z,71.9
2018-03-02T01:42:15.932Z,71.6
2018-03-02T01:43:17.464Z,71.9
2018-03-02T01:44:18.960Z,71.9
2018-03-02T01:45:20.458Z,71.6
2018-03-02T01:46:21.979Z,72.1
2018-03-02T01:47:23.432Z,71.9
2018-03-02T01:48:24.944Z,72.4
2018-03-02T01:49:26.448Z,72.5
2018-03-02T01:50:27.916Z,72.5
2018-03-02T01:51:29.352Z,72.6
2018-03-02T01:52:30.830Z,72.5
2018-03-02T01:53:32.317Z,72.8
2018-03-02T01:54:33.791Z,72.7
2018-03-02T01:55:35.328Z,72.7
2018-03-02T01:56:36.855Z,72.5
2018-03-02T01:57:38.346Z,73.0
2018-03-02T01:58:39.896Z,72.9
2018-03-02T01:59:41.337Z,73.1
2018-03-02T02:00:42.830Z,73.2
2018-03-02T02:01:44.319Z,72.9
2018-03-02T02:02:45.936Z,72.8
2018-03-02T02:03:47.441Z,73.1
2018-03-02T02:04:48.949Z,72.9
2018-03-02T02:05:50.448Z,73.0
2018-03-02T02:06:51.975Z,73.0
2018-03-02T02:07:53.509Z,73.0
2018-03-02T02:08:54.980Z,73.1
2018-03-02T02:09:56.512Z,73.1
2018-03-02T02:10:58.048Z,73.3
2018-03-02T02:11:59.537Z,73.2
2018-03-02T02:13:01.017Z,72.9
2018-03-02T02:14:02.459Z,73.7
2018-03-02T02:15:03.945Z,73.3
2018-03-02T02:16:05.443Z,73.6
2018-03-02T02:17:06.942Z,73.9
2018-03-02T02:18:08.410Z,73.6
2018-03-02T02:19:09.890Z,73.7
2018-03-02T02:20:11.422Z,73.5
2018-03-02T02:21:12.932Z,73.7
2018-03-02T02:22:14.460Z,73.8
2018-03-02T02:23:15.997Z,73.6
2018-03-02T02:24:17.481Z,73.8
2018-03-02T02:25:18.935Z,73.5
2018-03-02T02:26:20.465Z,73.6
2018-03-02T02:27:22.016Z,73.9
2018-03-02T02:28:23.465Z,73.7
2018-03-02T02:29:24.984Z,73.9
2018-03-02T02:30:26.527Z,74.0
2018-03-02T02:31:28.085Z,74.2
2018-03-02T02:32:29.568Z,74.3
2018-03-02T02:33:30.993Z,74.3
2018-03-02T02:34:32.489Z,74.2
2018-03-02T02:35:33.960Z,74.4
2018-03-02T02:36:35.422Z,74.0
2018-03-02T02:37:36.916Z,74.1
2018-03-02T02:38:38.374Z,74.1
2018-03-02T02:39:39.953Z,74.0
2018-03-02T02:40:41.455Z,74.1
2018-03-02T02:41:42.958Z,74.1
2018-03-02T02:42:44.446Z,73.9
2018-03-02T02:43:45.928Z,74.1
2018-03-02T02:44:47.439Z,74.0
2018-03-02T02:45:48.889Z,74.3
2018-03-02T02:46:50.453Z,74.1
2018-03-02T02:47:51.982Z,74.5
2018-03-02T02:48:53.447Z,74.3
2018-03-02T02:49:54.948Z,74.6
2018-03-02T02:50:56.478Z,74.7
2018-03-02T02:52:01.729Z,74.6
2018-03-02T02:53:03.001Z,74.5
2018-03-02T02:54:04.538Z,74.7
2018-03-02T02:55:05.991Z,74.2
2018-03-02T02:56:07.503Z,74.1
2018-03-02T02:57:09.016Z,74.1
2018-03-02T02:58:10.532Z,74.1
2018-03-02T02:59:12.066Z,74.0
2018-03-02T03:00:13.604Z,74.0
2018-03-02T03:01:15.088Z,74.1
2018-03-02T03:02:16.610Z,74.4
2018-03-02T03:03:18.089Z,74.5
2018-03-02T03:04:19.656Z,74.4
2018-03-02T03:05:21.126Z,74.7
2018-03-02T03:06:22.612Z,74.7
2018-03-02T03:07:24.134Z,74.7
2018-03-02T03:08:25.685Z,74.7
2018-03-02T03:09:27.200Z,74.6
2018-03-02T03:10:28.728Z,74.7
2018-03-02T03:11:30.210Z,74.6
2018-03-02T03:12:31.702Z,74.5
2018-03-02T03:13:33.230Z,74.7
2018-03-02T03:14:34.741Z,74.9
2018-03-02T03:15:36.233Z,75.0
2018-03-02T03:16:37.709Z,74.3
2018-03-02T03:17:39.176Z,74.7
2018-03-02T03:18:40.712Z,74.9
2018-03-02T03:19:42.234Z,74.8
2018-03-02T03:20:43.710Z,74.6
2018-03-02T03:21:45.249Z,74.6
2018-03-02T03:22:46.709Z,75.1
2018-03-02T03:23:48.229Z,74.9
2018-03-02T03:24:49.759Z,75.3
2018-03-02T03:25:51.312Z,75.3
2018-03-02T03:26:52.795Z,75.0
2018-03-02T03:27:54.317Z,75.3
2018-03-02T03:28:55.826Z,75.6
2018-03-02T03:29:57.305Z,75.6
2018-03-02T03:30:58.755Z,75.3
2018-03-02T03:32:00.290Z,75.2
2018-03-02T03:33:01.779Z,75.3
2018-03-02T03:34:03.266Z,75.4
2018-03-02T03:35:04.780Z,75.6
2018-03-02T03:36:06.302Z,76.0
2018-03-02T03:37:07.857Z,76.1
2018-03-02T03:38:09.268Z,75.8
2018-03-02T03:39:10.773Z,75.8
2018-03-02T03:40:12.304Z,75.8
2018-03-02T03:41:13.846Z,76.4
2018-03-02T03:42:15.338Z,75.8
2018-03-02T03:43:16.801Z,76.2
2018-03-02T03:44:18.286Z,75.8
2018-03-02T03:45:19.741Z,76.1
2018-03-02T03:46:21.236Z,76.4
2018-03-02T03:47:22.708Z,76.2
2018-03-02T03:48:24.205Z,76.1
2018-03-02T03:49:25.768Z,75.8
2018-03-02T03:50:27.242Z,75.9
2018-03-02T03:51:28.731Z,75.9
2018-03-02T03:52:30.196Z,75.9
2018-03-02T03:53:31.694Z,76.0
2018-03-02T03:54:33.200Z,76.1
2018-03-02T03:55:34.782Z,76.1
2018-03-02T03:56:36.311Z,75.9
2018-03-02T03:57:37.799Z,76.1
2018-03-02T03:58:39.297Z,75.9
2018-03-02T03:59:40.808Z,76.1
2018-03-02T04:00:42.374Z,75.6
2018-03-02T04:01:43.933Z,76.1
2018-03-02T04:02:45.357Z,76.0
2018-03-02T04:03:46.953Z,76.0
2018-03-02T04:04:48.459Z,75.9
2018-03-02T04:05:50.014Z,75.8
2018-03-02T04:06:51.511Z,76.4
2018-03-02T04:07:53.001Z,76.4
2018-03-02T04:08:54.522Z,76.7
2018-03-02T04:09:56.045Z,76.6
2018-03-02T04:10:57.522Z,76.3
2018-03-02T04:11:59.049Z,77.0
2018-03-02T04:13:00.545Z,76.7
2018-03-02T04:14:02.029Z,76.8
2018-03-02T04:15:03.527Z,76.8
2018-03-02T04:16:05.028Z,76.7
2018-03-02T04:17:06.525Z,76.9
2018-03-02T04:18:08.033Z,76.5
2018-03-02T04:19:09.514Z,76.5
2018-03-02T04:20:10.979Z,76.2
2018-03-02T04:21:12.433Z,76.3
2018-03-02T04:22:13.978Z,75.9
2018-03-02T04:23:15.525Z,76.1
2018-03-02T04:24:17.002Z,75.8
2018-03-02T04:25:18.529Z,76.4
2018-03-02T04:26:20.012Z,75.9
2018-03-02T04:27:21.531Z,75.9
2018-03-02T04:28:22.933Z,76.0
2018-03-02T04:29:24.494Z,76.1
2018-03-02T04:30:25.979Z,76.2
2018-03-02T04:31:27.559Z,75.9
2018-03-02T04:32:29.006Z,75.9
2018-03-02T04:33:30.523Z,75.8
2018-03-02T04:34:31.980Z,76.3
2018-03-02T04:35:33.510Z,76.2
2018-03-02T04:36:35.028Z,76.2
2018-03-02T04:37:36.468Z,75.8
2018-03-02T04:38:38.007Z,76.1
2018-03-02T04:39:39.489Z,76.2
2018-03-02T04:40:40.966Z,76.4
2018-03-02T04:41:42.432Z,75.8
2018-03-02T04:42:43.950Z,76.1
2018-03-02T04:43:45.374Z,76.1
2018-03-02T04:44:46.872Z,76.7
2018-03-02T04:45:48.330Z,77.0
2018-03-02T04:46:49.788Z,76.6
2018-03-02T04:47:51.320Z,76.8
2018-03-02T04:48:52.816Z,76.9
2018-03-02T04:49:54.318Z,76.9
2018-03-02T04:50:55.787Z,76.7
2018-03-02T04:51:57.261Z,77.3
2018-03-02T04:52:58.838Z,77.4
2018-03-02T04:54:00.312Z,77.9
2018-03-02T04:55:01.795Z,77.8
2018-03-02T04:56:03.270Z,78.1
2018-03-02T04:57:04.751Z,77.9
2018-03-02T04:58:06.234Z,78.0
2018-03-02T04:59:07.673Z,77.4
2018-03-02T05:00:09.201Z,77.4
2018-03-02T05:01:10.688Z,77.6
2018-03-02T05:02:12.133Z,77.6
2018-03-02T05:03:13.639Z,77.9
2018-03-02T05:04:15.139Z,77.7
2018-03-02T05:05:16.657Z,78.1
2018-03-02T05:06:18.172Z,78.7
2018-03-02T05:07:19.679Z,78.3
2018-03-02T05:08:21.144Z,78.3
2018-03-02T05:09:22.650Z,78.5
2018-03-02T05:10:24.107Z,78.4
2018-03-02T05:11:25.578Z,78.0
2018-03-02T05:12:27.062Z,78.3
2018-03-02T05:13:28.531Z,78.6
2018-03-02T05:14:29.993Z,78.7
2018-03-02T05:15:31.491Z,78.7
2018-03-02T05:16:32.929Z,78.4
2018-03-02T05:17:34.423Z,78.4
2018-03-02T05:18:35.899Z,78.4
2018-03-02T05:19:37.420Z,78.4
2018-03-02T05:20:38.853Z,78.8
2018-03-02T05:21:40.274Z,78.6
2018-03-02T05:22:41.748Z,78.6
2018-03-02T05:23:43.257Z,78.4
2018-03-02T05:24:44.726Z,78.4
2018-03-02T05:25:46.240Z,78.8
2018-03-02T05:26:47.720Z,78.4
2018-03-02T05:27:49.168Z,78.4
2018-03-02T05:28:50.647Z,78.3
2018-03-02T05:29:52.204Z,78.3
2018-03-02T05:30:53.722Z,78.5
2018-03-02T05:31:55.200Z,78.1
2018-03-02T05:32:56.655Z,78.1
2018-03-02T05:33:58.157Z,77.4
2018-03-02T05:34:59.662Z,77.8
2018-03-02T05:36:01.139Z,78.0
2018-03-02T05:37:02.647Z,77.7
2018-03-02T05:38:04.185Z,77.5
2018-03-02T05:39:05.782Z,77.9
2018-03-02T05:40:07.382Z,77.8
2018-03-02T05:41:09.282Z,77.8
2018-03-02T05:42:10.836Z,77.9
2018-03-02T05:43:12.584Z,78.5
2018-03-02T05:44:14.301Z,78.4
2018-03-02T05:45:15.999Z,78.4
2018-03-02T05:46:17.481Z,78.7
2018-03-02T05:47:19.031Z,78.9
2018-03-02T05:48:20.499Z,79.1
2018-03-02T05:49:21.986Z,79.1
2018-03-02T05:50:23.503Z,79.0
2018-03-02T05:51:25.010Z,79.1
2018-03-02T05:52:26.495Z,78.9
2018-03-02T05:53:28.006Z,78.9
2018-03-02T05:54:29.531Z,79.1
2018-03-02T05:55:31.031Z,78.9
2018-03-02T05:56:32.532Z,78.8
2018-03-02T05:57:34.062Z,79.1
2018-03-02T05:58:35.547Z,79.1
2018-03-02T05:59:37.114Z,79.2
2018-03-02T06:00:38.626Z,79.6
2018-03-02T06:01:40.162Z,79.6
2018-03-02T06:02:41.667Z,79.6
2018-03-02T06:03:43.235Z,79.7
2018-03-02T06:04:44.716Z,79.5
2018-03-02T06:05:46.198Z,79.6
2018-03-02T06:06:47.707Z,79.6
2018-03-02T06:07:49.240Z,79.9
2018-03-02T06:08:50.739Z,79.9
2018-03-02T06:09:52.342Z,79.5
2018-03-02T06:10:53.816Z,79.5
2018-03-02T06:11:55.335Z,79.7
2018-03-02T06:12:56.980Z,79.6
2018-03-02T06:13:58.497Z,79.4
2018-03-02T06:15:00.073Z,79.5
2018-03-02T06:16:01.594Z,79.1
2018-03-02T06:17:03.773Z,79.1
2018-03-02T06:18:05.649Z,79.2
2018-03-02T06:19:07.175Z,78.7
2018-03-02T06:20:08.712Z,78.7
2018-03-02T06:21:10.462Z,78.7
2018-03-02T06:22:11.953Z,78.6
2018-03-02T06:23:13.965Z,78.6
2018-03-02T06:24:15.760Z,78.9
2018-03-02T06:25:17.483Z,78.4
2018-03-02T06:26:19.424Z,78.2
2018-03-02T06:27:20.910Z,78.5
2018-03-02T06:28:23.119Z,78.1
2018-03-02T06:30:05.530Z,77.7
2018-03-02T06:31:07.329Z,78.0
2018-03-02T06:32:09.107Z,77.4
2018-03-02T06:33:50.232Z,77.2
2018-03-02T06:34:51.693Z,77.5
2018-03-02T06:35:53.977Z,76.8
2018-03-02T06:36:55.272Z,77.4
2018-03-02T06:37:57.195Z,77.5
2018-03-02T06:38:58.734Z,77.6
2018-03-02T06:40:01.024Z,77.6
2018-03-02T06:41:02.821Z,78.4
2018-03-02T06:42:04.482Z,78.3
2018-03-02T06:43:06.292Z,78.5
2018-03-02T06:44:08.184Z,78.1
2018-03-02T06:45:09.669Z,78.4
2018-03-02T06:46:11.229Z,78.5
2018-03-02T06:47:13.665Z,78.1
2018-03-02T06:48:15.262Z,77.7
2018-03-02T06:49:17.054Z,78.0
2018-03-02T06:50:18.560Z,78.1
2018-03-02T06:51:20.145Z,78.0
2018-03-02T06:52:21.773Z,78.1
2018-03-02T06:53:23.436Z,77.9
2018-03-02T06:54:25.335Z,77.6
2018-03-02T06:55:26.920Z,77.4
2018-03-02T06:56:29.086Z,77.1
2018-03-02T06:57:30.699Z,77.2
2018-03-02T06:58:32.367Z,76.8
2018-03-02T06:59:34.015Z,76.7
2018-03-02T07:00:35.645Z,76.7
2018-03-02T07:01:37.236Z,76.5
2018-03-02T07:02:38.782Z,76.7
2018-03-02T07:03:40.332Z,76.4
2018-03-02T07:04:41.997Z,76.0
2018-03-02T07:05:43.921Z,75.8
2018-03-02T07:06:46.079Z,75.8
2018-03-02T07:07:47.985Z,76.0
2018-03-02T07:08:49.529Z,75.8
2018-03-02T07:09:51.237Z,76.0
2018-03-02T07:10:52.827Z,76.0
2018-03-02T07:11:54.496Z,76.1
2018-03-02T07:12:56.270Z,76.2
2018-03-02T07:13:58.037Z,76.0
2018-03-02T07:14:59.804Z,76.5
2018-03-02T07:16:01.318Z,76.9
2018-03-02T07:17:04.916Z,76.8
2018-03-02T07:18:06.602Z,76.7
2018-03-02T07:19:08.203Z,76.9
2018-03-02T07:20:09.675Z,76.3
2018-03-02T07:21:11.279Z,75.9
2018-03-02T07:22:12.862Z,75.6
2018-03-02T07:23:15.035Z,75.1
2018-03-02T07:24:15.942Z,75.1
2018-03-02T07:25:17.517Z,75.4
2018-03-02T07:26:19.126Z,75.0
2018-03-02T07:27:20.676Z,74.6
2018-03-02T07:28:22.212Z,74.7
2018-03-02T07:29:23.818Z,74.7
2018-03-02T07:30:25.369Z,74.9
2018-03-02T07:31:26.845Z,75.5
2018-03-02T07:32:28.360Z,74.6
2018-03-02T07:33:29.850Z,75.5
2018-03-02T07:34:31.360Z,75.9
2018-03-02T07:35:33.012Z,75.8
2018-03-02T07:36:34.482Z,75.7
2018-03-02T07:37:36.034Z,75.8
2018-03-02T07:38:37.512Z,75.5
2018-03-02T07:39:39.057Z,74.3
2018-03-02T07:40:40.636Z,74.6
2018-03-02T07:41:42.178Z,74.6
2018-03-02T07:42:43.666Z,74.3
2018-03-02T07:43:45.224Z,73.9
2018-03-02T07:44:46.804Z,73.7
2018-03-02T07:45:48.379Z,73.0
2018-03-02T07:46:49.969Z,71.9
2018-03-02T07:47:51.458Z,71.9
2018-03-02T07:48:52.955Z,71.4
2018-03-02T07:49:54.532Z,71.1
2018-03-02T07:50:56.081Z,71.3
2018-03-02T07:51:57.673Z,71.2
2018-03-02T07:52:59.268Z,70.9
2018-03-02T07:54:00.913Z,71.2
2018-03-02T07:55:02.502Z,71.2
2018-03-02T07:56:04.126Z,71.3
2018-03-02T07:57:05.807Z,71.2
2018-03-02T07:58:07.328Z,70.9
2018-03-02T07:59:08.879Z,70.8
2018-03-02T08:00:10.458Z,69.8
2018-03-02T08:01:12.179Z,69.0
2018-03-02T08:02:13.764Z,69.1
2018-03-02T08:03:15.288Z,68.7
2018-03-02T08:04:16.814Z,69.2
2018-03-02T08:05:18.460Z,68.8
2018-03-02T08:06:20.006Z,68.7
2018-03-02T08:07:21.506Z,68.4
2018-03-02T08:08:23.098Z,68.5
2018-03-02T08:09:24.679Z,67.7
2018-03-02T08:10:26.245Z,67.4
2018-03-02T08:11:27.794Z,67.4
2018-03-02T08:12:29.273Z,68.2
2018-03-02T08:13:30.773Z,68.6
2018-03-02T08:14:32.269Z,69.0
2018-03-02T08:15:34.741Z,69.0
2018-03-02T08:16:36.303Z,68.6
2018-03-02T08:17:37.812Z,68.8
2018-03-02T08:18:39.502Z,68.4
2018-03-02T08:19:41.082Z,68.9
2018-03-02T08:20:42.697Z,69.6
2018-03-02T08:21:44.191Z,69.8
2018-03-02T08:22:45.736Z,70.0
2018-03-02T08:23:47.263Z,70.3
2018-03-02T08:24:48.816Z,69.5
2018-03-02T08:25:50.412Z,68.9
2018-03-02T08:26:51.906Z,68.7
2018-03-02T08:27:53.442Z,68.8
2018-03-02T08:28:54.975Z,68.8
2018-03-02T08:29:56.498Z,69.3
2018-03-02T08:30:58.133Z,69.2
2018-03-02T08:31:59.675Z,69.1
2018-03-02T08:33:01.138Z,69.4
2018-03-02T08:34:02.693Z,68.6
2018-03-02T08:35:04.465Z,68.1
2018-03-02T08:36:05.999Z,67.2
2018-03-02T08:37:07.568Z,67.0
2018-03-02T08:38:09.064Z,67.4
2018-03-02T08:39:10.624Z,67.3
2018-03-02T08:40:12.213Z,67.2
2018-03-02T08:41:13.771Z,66.4
2018-03-02T08:42:15.213Z,67.4
2018-03-02T08:43:16.820Z,67.3
2018-03-02T08:44:18.364Z,67.9
2018-03-02T08:45:19.906Z,67.4
2018-03-02T08:46:21.434Z,67.4
2018-03-02T08:47:23.001Z,67.1
2018-03-02T08:48:24.648Z,66.8
2018-03-02T08:49:26.187Z,66.1
2018-03-02T08:50:27.698Z,66.1
2018-03-02T08:51:29.282Z,66.0
2018-03-02T08:52:30.792Z,66.0
2018-03-02T08:53:32.353Z,65.9
2018-03-02T08:54:33.869Z,65.7
2018-03-02T08:55:35.399Z,66.0
2018-03-02T08:56:36.979Z,66.0
2018-03-02T08:57:38.529Z,65.7
2018-03-02T08:58:40.095Z,65.8
2018-03-02T08:59:41.654Z,65.4
2018-03-02T09:00:43.280Z,65.9
2018-03-02T09:01:44.817Z,65.9
2018-03-02T09:02:46.532Z,65.9
2018-03-02T09:03:48.073Z,65.7
2018-03-02T09:04:49.644Z,65.7
2018-03-02T09:05:51.211Z,66.2
2018-03-02T09:06:52.730Z,65.8
2018-03-02T09:07:54.291Z,66.1
2018-03-02T09:08:55.884Z,65.7
2018-03-02T09:09:57.680Z,66.0
2018-03-02T09:10:59.350Z,66.2
2018-03-02T09:12:01.067Z,66.1
2018-03-02T09:13:02.816Z,65.8
2018-03-02T09:14:04.508Z,66.2
2018-03-02T09:15:06.160Z,65.8
2018-03-02T09:16:07.946Z,65.8
2018-03-02T09:17:09.774Z,66.0
2018-03-02T09:18:11.463Z,66.1
2018-03-02T09:19:13.314Z,65.8
2018-03-02T09:20:14.979Z,64.4
2018-03-02T09:21:16.606Z,64.5
2018-03-02T09:22:18.299Z,63.5
2018-03-02T09:23:20.357Z,63.3
2018-03-02T09:24:22.017Z,62.6
2018-03-02T09:25:23.524Z,62.5
2018-03-02T09:26:25.222Z,61.6
2018-03-02T09:27:27.484Z,61.1
2018-03-02T09:28:28.969Z,60.4
2018-03-02T09:29:30.555Z,59.8
2018-03-02T09:30:32.097Z,58.7
2018-03-02T09:31:33.673Z,57.9
2018-03-02T09:32:35.238Z,56.9
2018-03-02T09:33:36.889Z,55.7
2018-03-02T09:34:38.453Z,55.4
2018-03-02T09:35:39.995Z,55.9
2018-03-02T09:36:41.472Z,55.8
2018-03-02T09:37:43.029Z,56.2
2018-03-02T09:38:44.531Z,56.2
2018-03-02T09:39:46.057Z,55.4
2018-03-02T09:40:47.534Z,55.2
2018-03-02T09:41:49.045Z,54.5
2018-03-02T09:42:50.588Z,54.1
2018-03-02T09:43:52.075Z,53.6
2018-03-02T09:44:53.611Z,53.1
2018-03-02T09:45:55.095Z,52.1
2018-03-02T09:46:57.120Z,52.4
2018-03-02T09:47:58.662Z,52.6
2018-03-02T09:49:00.133Z,52.9
2018-03-02T09:50:01.695Z,53.0
2018-03-02T09:51:03.184Z,52.5
2018-03-02T09:52:04.696Z,52.5
2018-03-02T09:53:06.187Z,52.5
2018-03-02T09:54:07.790Z,53.2
2018-03-02T09:55:09.337Z,53.7
2018-03-02T09:56:10.847Z,53.5
2018-03-02T09:57:12.325Z,52.2
2018-03-02T09:58:13.876Z,52.6
2018-03-02T09:59:15.332Z,52.4
2018-03-02T10:00:16.881Z,52.3
2018-03-02T10:01:18.347Z,51.0
2018-03-02T10:02:19.849Z,50.2
2018-03-02T10:03:21.407Z,49.2
2018-03-02T10:04:22.921Z,48.3
2018-03-02T10:05:24.513Z,47.6
2018-03-02T10:06:26.034Z,47.4
2018-03-02T10:07:27.518Z,46.9
2018-03-02T10:08:29.038Z,46.1
2018-03-02T10:09:30.590Z,44.6
2018-03-02T10:10:32.024Z,44.2
2018-03-02T10:11:33.706Z,43.1
2018-03-02T10:12:35.200Z,42.3
2018-03-02T10:13:36.691Z,41.4
2018-03-02T10:14:38.198Z,40.2
2018-03-02T10:15:39.799Z,38.5
2018-03-02T10:16:41.329Z,37.8
2018-03-02T10:17:42.811Z,37.1
2018-03-02T10:18:44.400Z,36.5
2018-03-02T10:19:45.918Z,35.8
2018-03-02T10:20:47.591Z,35.2
2018-03-02T10:21:49.031Z,34.5
2018-03-02T10:22:50.567Z,33.9
2018-03-02T10:23:52.109Z,34.0
2018-03-02T10:24:53.711Z,34.2
2018-03-02T10:25:55.222Z,33.8
2018-03-02T10:26:56.799Z,33.1
2018-03-02T10:27:58.312Z,31.7
2018-03-02T10:28:59.851Z,30.7
2018-03-02T10:30:01.479Z,29.8
2018-03-02T10:31:03.043Z,29.4
2018-03-02T10:32:04.568Z,28.6
2018-03-02T10:33:06.105Z,27.2
2018-03-02T10:34:07.586Z,27.2
2018-03-02T10:35:09.151Z,27.2
2018-03-02T10:36:10.672Z,28.2
2018-03-02T10:37:12.215Z,30.5
2018-03-02T10:38:13.738Z,31.7
2018-03-02T10:39:15.227Z,32.2
2018-03-02T10:40:16.741Z,32.3
2018-03-02T10:41:18.264Z,32.1
2018-03-02T10:42:19.821Z,31.8
2018-03-02T10:43:21.292Z,31.2
2018-03-02T10:44:22.760Z,30.7
2018-03-02T10:45:24.349Z,30.1
2018-03-02T10:46:25.886Z,29.5
2018-03-02T10:47:27.387Z,28.9
2018-03-02T10:48:28.901Z,28.0
2018-03-02T10:49:30.418Z,27.3
2018-03-02T10:50:31.945Z,28.3
2018-03-02T10:51:33.465Z,28.1
2018-03-02T10:52:35.013Z,27.6
2018-03-02T10:53:36.526Z,26.4
2018-03-02T10:54:38.028Z,25.9
2018-03-02T10:55:39.541Z,25.6
2018-03-02T10:56:41.115Z,26.1
2018-03-02T10:57:42.841Z,26.3
2018-03-02T10:58:44.402Z,27.3
2018-03-02T10:59:45.930Z,27.5
2018-03-02T11:00:47.423Z,27.6
2018-03-02T11:01:49.011Z,27.8
2018-03-02T11:02:50.544Z,27.3
2018-03-02T11:03:52.093Z,27.2
2018-03-02T11:04:53.622Z,27.6
2018-03-02T11:05:55.156Z,28.3
2018-03-02T11:06:56.686Z,28.3
2018-03-02T11:07:58.273Z,27.9
2018-03-02T11:08:59.804Z,27.6
2018-03-02T11:10:01.311Z,27.3
2018-03-02T11:11:03.278Z,27.6
2018-03-02T11:12:04.820Z,26.3
2018-03-02T11:13:06.360Z,25.3
2018-03-02T11:14:07.877Z,24.6
2018-03-02T11:15:09.406Z,24.7
2018-03-02T11:16:10.953Z,24.4
2018-03-02T11:17:12.457Z,24.8
2018-03-02T11:18:13.975Z,24.5
2018-03-02T11:19:15.464Z,24.1
2018-03-02T11:20:16.949Z,24.0
2018-03-02T11:21:18.476Z,23.9
2018-03-02T11:22:19.994Z,23.2
2018-03-02T11:23:21.519Z,23.4
2018-03-02T11:24:23.014Z,23.8
2018-03-02T11:25:24.590Z,24.3
2018-03-02T11:26:26.186Z,24.3
2018-03-02T11:27:27.810Z,25.5
2018-03-02T11:28:29.344Z,27.4
2018-03-02T11:29:30.876Z,28.0
2018-03-02T11:30:32.370Z,27.8
2018-03-02T11:31:33.869Z,28.2
2018-03-02T11:32:35.411Z,28.1
2018-03-02T11:33:36.987Z,27.4
2018-03-02T11:34:38.619Z,26.4
2018-03-02T11:35:40.417Z,25.2
2018-03-02T11:36:42.075Z,24.9
2018-03-02T11:37:43.581Z,25.0
2018-03-02T11:38:45.057Z,24.7
2018-03-02T11:39:46.550Z,25.3
2018-03-02T11:40:48.032Z,25.3
2018-03-02T11:41:49.538Z,25.2
2018-03-02T11:42:51.031Z,24.8
2018-03-02T11:43:52.494Z,24.3
2018-03-02T11:44:54.033Z,24.2
2018-03-02T11:45:55.474Z,23.4
2018-03-02T11:46:56.922Z,23.2
2018-03-02T11:47:58.403Z,22.3
2018-03-02T11:48:59.868Z,22.3
2018-03-02T11:50:01.339Z,21.7
2018-03-02T11:51:02.770Z,21.1
2018-03-02T11:52:04.221Z,20.8
2018-03-02T11:53:05.700Z,20.7
2018-03-02T11:54:07.157Z,20.7
2018-03-02T11:55:08.622Z,21.3
2018-03-02T11:56:10.071Z,21.1
2018-03-02T11:57:11.530Z,20.6
2018-03-02T11:58:12.952Z,20.4
2018-03-02T11:59:14.419Z,20.1
2018-03-02T12:00:15.834Z,20.5
2018-03-02T12:01:17.338Z,20.2
2018-03-02T12:02:18.855Z,21.2
2018-03-02T12:03:20.327Z,21.6
2018-03-02T12:04:21.765Z,21.6
2018-03-02T12:05:23.215Z,21.5
2018-03-02T12:06:24.700Z,20.5
2018-03-02T12:07:26.151Z,20.1
2018-03-02T12:08:28.067Z,20.0
2018-03-02T12:09:29.532Z,20.7
2018-03-02T12:10:30.953Z,21.3
2018-03-02T12:11:32.372Z,22.1
2018-03-02T12:12:33.803Z,22.8
2018-03-02T12:13:35.281Z,24.2
2018-03-02T12:14:36.726Z,24.8
2018-03-02T12:15:38.162Z,25.6
2018-03-02T12:16:39.583Z,26.2
2018-03-02T12:17:41.023Z,26.7
2018-03-02T12:18:42.455Z,27.6
2018-03-02T12:19:43.912Z,28.3
2018-03-02T12:20:45.365Z,29.0
2018-03-02T12:21:46.838Z,30.1
2018-03-02T12:22:48.374Z,30.6
2018-03-02T12:23:49.876Z,30.9
2018-03-02T12:24:51.362Z,31.4
2018-03-02T12:25:52.821Z,32.3
2018-03-02T12:26:54.306Z,32.8
2018-03-02T12:27:55.814Z,33.4
2018-03-02T12:28:57.297Z,33.9
2018-03-02T12:29:58.838Z,34.3
2018-03-02T12:31:00.314Z,33.9
2018-03-02T12:32:01.784Z,34.5
2018-03-02T12:33:03.228Z,34.8
2018-03-02T12:34:04.727Z,35.4
2018-03-02T12:35:06.222Z,36.0
2018-03-02T12:36:07.820Z,36.3
2018-03-02T12:37:09.271Z,36.6
2018-03-02T12:38:10.759Z,36.8
2018-03-02T12:39:12.279Z,36.6
2018-03-02T12:40:13.780Z,36.6
2018-03-02T12:41:15.244Z,37.0
2018-03-02T12:42:16.742Z,37.0
2018-03-02T12:43:18.175Z,37.9
2018-03-02T12:44:19.593Z,37.3
2018-03-02T12:45:21.016Z,37.0
2018-03-02T12:46:22.436Z,36.9
2018-03-02T12:47:23.850Z,36.4
2018-03-02T12:48:25.274Z,36.0
2018-03-02T12:49:26.730Z,35.4
2018-03-02T12:50:28.146Z,35.2
2018-03-02T12:51:29.720Z,34.7
2018-03-02T12:52:31.151Z,35.0
2018-03-02T12:53:32.571Z,34.9
2018-03-02T12:54:34.124Z,34.9
2018-03-02T12:55:35.428Z,34.7
2018-03-02T12:56:36.892Z,34.9
2018-03-02T12:57:38.367Z,35.2
2018-03-02T12:58:39.882Z,35.5
2018-03-02T12:59:41.405Z,35.3
2018-03-02T13:00:42.868Z,35.5
2018-03-02T13:01:44.371Z,35.2
2018-03-02T13:02:45.838Z,34.9
2018-03-02T13:03:47.286Z,34.8
2018-03-02T13:04:48.789Z,34.6
2018-03-02T13:05:50.246Z,34.6
2018-03-02T13:06:51.641Z,34.5
2018-03-02T13:07:53.171Z,34.5
2018-03-02T13:08:55.630Z,34.1
2018-03-02T13:09:57.320Z,34.1
2018-03-02T13:10:58.937Z,33.0
2018-03-02T13:12:00.456Z,32.7
2018-03-02T13:13:01.986Z,31.8
2018-03-02T13:14:03.637Z,31.4
2018-03-02T13:15:05.204Z,31.4
2018-03-02T13:16:06.810Z,31.3
2018-03-02T13:17:08.360Z,31.0
2018-03-02T13:18:09.886Z,30.3
2018-03-02T13:19:12.165Z,29.5
2018-03-02T13:20:14.494Z,28.2
2018-03-02T13:21:16.001Z,27.7
2018-03-02T13:22:17.849Z,26.8
2018-03-02T13:23:19.694Z,26.2
2018-03-02T13:24:21.351Z,25.6
2018-03-02T13:25:23.039Z,24.8
2018-03-02T13:26:25.462Z,24.4
2018-03-02T13:27:28.328Z,23.7
2018-03-02T13:28:29.795Z,22.9
2018-03-02T13:29:31.775Z,22.4
2018-03-02T13:30:33.718Z,21.6
2018-03-02T13:31:35.423Z,21.5
2018-03-02T13:32:36.786Z,20.9
2018-03-02T13:33:39.023Z,20.9
2018-03-02T13:34:40.574Z,20.9
2018-03-02T13:35:42.223Z,21.3
2018-03-02T13:36:43.807Z,21.1
2018-03-02T13:37:45.498Z,20.5
2018-03-02T13:38:47.141Z,20.5
2018-03-02T13:39:48.726Z,20.1
2018-03-02T13:40:50.812Z,20.4